Novi, MI (48374)

14:52 EDT 2. Září 2014 (GMT -0400)
Taft rd north of 10 mile rd | Change Station
CLOSE
Current Station
Osobní povětrnostní stanice
Location: Novi, MI
Nadmořská výška: 940 ft
Poblíž povětrnostní stanice

Výška 940 ft 42.47 °N, 83.49 °W | Updated 11 seconds ago

Skoro zataženo
Skoro zataženo
75.6 °F
Pocit jako 78 °F
S
2.0
Vítr proměnlivý Vítr od západní
Gusts 8.0 mil/h

Dnes
Vysoké -- | Nízké -- °F
--% Možnost srážek
Včera
Vysoké -- | Nízké -- °F
Precip. -- inčů
7:00 AM 8:06 PM
První čtvrť, 54% visible
Tlak 29.85 inčů
Viditelnost 10.0 mílí
Zataženo Polojasno 4000 ft
Skoro zataženo 9000 ft
Skoro zataženo 14000 ft
Tepelný index 78 °F
Rosný bod 63 °F
Vlhkost 64%
Dešťové srážky 0.00 inčů
Sněhová pokrývka Není k dispozici
UV záření 5 ze 12
Pyl 7.60 ze 12
Ozón Dobrý
PM2.5 Dobrý
Flu Activity Není k dispozici
METAR KPTK 021753Z 28008KT 240V310 10SM SCT040 BKN090 BKN140 25/16 A2986 RMK AO2 SLP106 T02500161 10250 20206 51001

More Conditions Fewer Conditions

Tlak 29.85 inčů
Viditelnost 10.0 mílí
Zataženo Polojasno 4000 ft
Skoro zataženo 9000 ft
Skoro zataženo 14000 ft
Tepelný index 78 °F
Rosný bod 63 °F
Vlhkost 64%
Dešťové srážky 0.00 inčů
Sněhová pokrývka Není k dispozici
UV záření 5 ze 12
Pyl 7.60 ze 12
Ozón Dobrý
PM2.5 Dobrý
Flu Activity Není k dispozici
METAR KPTK 021753Z 28008KT 240V310 10SM SCT040 BKN090 BKN140 25/16 A2986 RMK AO2 SLP106 T02500161 10250 20206 51001

More Conditions Fewer Conditions

10-Day Weather Forecast

Almanac

Astronomie

Sep. 02, 2014 Východ Západ
Skutečný čas 07:00 EDT 20:06 EDT
Občanský soumrak 06:31 EDT 20:35 EDT
Námořní soumrak 05:56 EDT 21:09 EDT
Astronomický soumrak 05:20 EDT 21:45 EDT
Měsíc 14:52 EDT Měsíc nezapadá
Délka denního světla 14h 04m
Délka dne
13h 06m
Tomorrow will be 2m 47s shorter.
První čtvrť, 54% of the Moon is Illuminated
Dnes
První čtvrť
Zář 8
Úplněk
Zář 15
Ubývající
Zář 24
Nov
Říj 1
První čtvrť

Dnešní extrémy

State Highs State Lows

Community

WunderPhotos

Upload Photos

1,749,743 snímků staženo!

WunderBlogs® & News

By Dr. Jeff Masters
Director of Meteorology, Weather Underground
By Kari Strenfel
Meteorologist, Weather Underground
By Christopher C. Burt
Weather Historian, Weather Underground
September 2, 2014
September 2, 2014
September 2, 2014

Nearby

Kvalita ovzduší

  Kvalita ovzduší Index kvality ovzduší Polutant
Včera Dobrý
PM2.5
Včera Dobrý
OZONE
Nyní Dobrý
PM2.5
Nyní Dobrý
OZONE
Úterý Dobrý
OZONE
Úterý Dobrý
PM2.5
Středa Střední
PM2.5
Středa Dobrý
OZONE
Čtvrtek Střední
PM2.5
Čtvrtek Dobrý
OZONE
Pátek Střední
PM2.5
Pátek Dobrý
OZONE
Sobota Dobrý
OZONE
Sobota Dobrý
PM2.5
Neděle Dobrý
OZONE
Neděle Dobrý
PM2.5

Výška sněhu

Station Hloubka Nadmořská výška
Žádný nový sníh nebyl hlášen

Seizmická činnost

Město Distance Mag. Čas & datum
Žádné zemětřesení v okolí nebylo hlášeno
Minimální zobrazený rozsah je 2.5.

Pobřežní teplota vody

Lokalita Teplota
Marblehead, OH 73.0 °F

Poblíž povětrnostní stanice